createdAt,value
2023-02-11T19:58:36.787Z,21.38
2023-02-11T20:01:12.406Z,22.28
2023-02-11T20:03:42.621Z,23.41
2023-02-11T20:06:17.113Z,24.18
2023-02-11T20:08:45.542Z,24.75
2023-02-11T20:11:17.851Z,25.13
2023-02-11T20:13:45.675Z,25.47
2023-02-11T20:16:18.899Z,25.73
2023-02-11T20:21:49.738Z,26.36
2023-02-11T20:24:18.664Z,26.58
2023-02-11T20:26:48.695Z,26.82
2023-02-11T20:29:17.551Z,27.03
2023-02-11T20:34:17.782Z,25.53
2023-02-11T20:36:52.401Z,20.32
2023-02-11T20:39:22.373Z,15.89
2023-02-11T20:41:52.020Z,13.07
2023-02-11T20:44:24.352Z,11.07
2023-02-11T20:46:54.219Z,9.37
2023-02-11T20:49:24.517Z,7.98
2023-02-11T20:51:54.171Z,7.09
2023-02-11T20:54:23.692Z,6.30
2023-02-11T20:56:54.039Z,5.55
2023-02-11T20:59:23.391Z,5.02
2023-02-11T21:01:56.229Z,4.55
2023-02-11T21:04:27.555Z,4.16
2023-02-11T21:06:59.214Z,3.82
2023-02-11T21:09:30.784Z,3.53
2023-02-11T21:11:58.920Z,3.27
2023-02-11T21:14:27.227Z,3.09
2023-02-11T21:16:55.313Z,2.92
2023-02-11T21:19:23.270Z,2.77
2023-02-11T21:21:55.220Z,2.66
2023-02-11T21:24:23.801Z,2.55
2023-02-11T21:26:52.102Z,2.46
2023-02-11T21:29:19.836Z,2.38
2023-02-11T21:31:47.742Z,2.31
2023-02-11T21:34:16.348Z,2.27
2023-02-11T21:36:45.415Z,2.22
2023-02-11T21:39:13.909Z,2.19
2023-02-11T21:41:42.168Z,2.17
2023-02-11T21:44:10.050Z,2.16
2023-02-11T21:46:38.836Z,2.13
2023-02-11T21:49:06.713Z,2.12
2023-02-11T21:51:34.856Z,2.10
2023-02-11T21:54:03.371Z,2.09
2023-02-11T21:56:35.541Z,2.08
2023-02-11T21:59:03.889Z,2.06
2023-02-11T22:01:35.386Z,2.06
2023-02-11T22:04:03.816Z,2.06
2023-02-11T22:06:34.152Z,2.05
2023-02-11T22:09:07.126Z,2.04
2023-02-11T22:11:36.400Z,2.02
2023-02-11T22:14:04.595Z,2.02
2023-02-11T22:16:33.146Z,2.02
2023-02-11T22:19:02.556Z,2.01
2023-02-11T22:21:30.446Z,2.01
2023-02-11T22:23:58.949Z,2.01
2023-02-11T22:26:28.577Z,2.01
2023-02-11T22:28:57.312Z,2.01
2023-02-11T22:31:29.172Z,2.03
2023-02-11T22:33:58.241Z,2.02
2023-02-11T22:36:29.287Z,2.03
2023-02-11T22:39:01.847Z,2.04
2023-02-11T22:41:30.465Z,2.03
2023-02-11T22:43:58.393Z,2.03
2023-02-11T22:46:26.699Z,2.02
2023-02-11T22:48:55.180Z,2.01
2023-02-11T22:51:25.500Z,2.02
2023-02-11T22:53:56.971Z,2.03
2023-02-11T22:56:26.368Z,2.02
2023-02-11T22:58:57.850Z,2.00
2023-02-11T23:01:26.621Z,2.00
2023-02-11T23:03:54.810Z,2.00
2023-02-11T23:06:23.361Z,2.00
2023-02-11T23:08:51.628Z,1.99
2023-02-11T23:11:30.984Z,1.99
2023-02-11T23:13:59.456Z,1.98
2023-02-11T23:16:31.244Z,1.97
2023-02-11T23:19:05.076Z,1.97
2023-02-11T23:21:53.039Z,1.97
2023-02-11T23:24:21.104Z,1.97
2023-02-11T23:26:49.002Z,1.96
2023-02-11T23:29:17.488Z,1.97
2023-02-11T23:31:46.609Z,1.96
2023-02-11T23:34:23.890Z,1.97
2023-02-11T23:36:53.037Z,1.96
2023-02-11T23:39:20.904Z,1.96
2023-02-11T23:41:52.398Z,1.96
2023-02-11T23:44:20.222Z,1.97
2023-02-11T23:46:48.087Z,1.97
2023-02-11T23:49:15.852Z,1.97
2023-02-11T23:51:43.623Z,1.98
2023-02-11T23:54:15.165Z,1.98
2023-02-11T23:56:43.852Z,1.98
2023-02-11T23:59:11.996Z,1.97
